Terminal Aerodrome Forecast
Issued by NWS

Home | Current Version | Previous Version | Graphics & Text | Print | Product List | Glossary On
Versions: 1 2 3 4 5 6 7 8 9 10 11 12 13 14 15 16 17 18
000
FTUS43 KABR 252100 AAC
TAFMBG
TAF AMD
KMBG 252151Z 2522/2618 36015KT P6SM BKN025 BKN035 BKN050
     FM260000 35013KT P6SM SCT040 BKN100
     FM260300 34010KT P6SM SCT070 SCT120=

USA.gov is the U.S. government's official web portal to all federal, state and local government web resources and services.